sensor_id;sensor_type;location;lat;lon;timestamp;pressure;altitude;pressure_sealevel;temperature
67353;BMP180;54238;52.278;21.056;2023-03-23T00:02:01;99767.40;;;10.20
67353;BMP180;54238;52.278;21.056;2023-03-23T00:04:34;99766.20;;;10.20
67353;BMP180;54238;52.278;21.056;2023-03-23T00:07:04;99762.40;;;10.20
67353;BMP180;54238;52.278;21.056;2023-03-23T00:09:31;99763.60;;;10.18
67353;BMP180;54238;52.278;21.056;2023-03-23T00:12:06;99760.60;;;10.14
67353;BMP180;54238;52.278;21.056;2023-03-23T00:14:36;99757.60;;;10.10
67353;BMP180;54238;52.278;21.056;2023-03-23T00:17:09;99754.20;;;10.10
67353;BMP180;54238;52.278;21.056;2023-03-23T00:19:40;99751.20;;;10.10
67353;BMP180;54238;52.278;21.056;2023-03-23T00:22:14;99750.60;;;10.10
67353;BMP180;54238;52.278;21.056;2023-03-23T00:24:43;99749.20;;;10.00
67353;BMP180;54238;52.278;21.056;2023-03-23T00:27:11;99750.00;;;10.00
67353;BMP180;54238;52.278;21.056;2023-03-23T00:29:44;99745.20;;;10.00
67353;BMP180;54238;52.278;21.056;2023-03-23T00:32:24;99747.80;;;10.00
67353;BMP180;54238;52.278;21.056;2023-03-23T00:34:57;99744.40;;;10.00
67353;BMP180;54238;52.278;21.056;2023-03-23T00:37:32;99740.00;;;10.00
67353;BMP180;54238;52.278;21.056;2023-03-23T00:40:03;99735.20;;;10.00
67353;BMP180;54238;52.278;21.056;2023-03-23T00:42:40;99731.60;;;10.00
67353;BMP180;54238;52.278;21.056;2023-03-23T00:45:09;99725.40;;;10.00
67353;BMP180;54238;52.278;21.056;2023-03-23T00:47:37;99732.20;;;10.00
67353;BMP180;54238;52.278;21.056;2023-03-23T00:50:08;99732.80;;;10.00
67353;BMP180;54238;52.278;21.056;2023-03-23T00:52:35;99725.20;;;10.00
67353;BMP180;54238;52.278;21.056;2023-03-23T00:55:03;99725.60;;;10.00
67353;BMP180;54238;52.278;21.056;2023-03-23T00:57:30;99726.60;;;10.00
67353;BMP180;54238;52.278;21.056;2023-03-23T00:59:59;99725.40;;;10.00
67353;BMP180;54238;52.278;21.056;2023-03-23T01:02:33;99722.20;;;10.00
67353;BMP180;54238;52.278;21.056;2023-03-23T01:05:06;99718.00;;;10.00
67353;BMP180;54238;52.278;21.056;2023-03-23T01:07:38;99719.80;;;10.00
67353;BMP180;54238;52.278;21.056;2023-03-23T01:10:06;99715.20;;;10.00
67353;BMP180;54238;52.278;21.056;2023-03-23T01:12:34;99714.20;;;10.00
67353;BMP180;54238;52.278;21.056;2023-03-23T01:15:02;99715.00;;;10.06
67353;BMP180;54238;52.278;21.056;2023-03-23T01:17:33;99710.00;;;10.10
67353;BMP180;54238;52.278;21.056;2023-03-23T01:20:00;99713.00;;;10.10
67353;BMP180;54238;52.278;21.056;2023-03-23T01:22:32;99705.40;;;10.10
67353;BMP180;54238;52.278;21.056;2023-03-23T01:25:21;99709.40;;;10.12
67353;BMP180;54238;52.278;21.056;2023-03-23T01:27:48;99710.20;;;10.20
67353;BMP180;54238;52.278;21.056;2023-03-23T01:30:17;99721.60;;;10.20
67353;BMP180;54238;52.278;21.056;2023-03-23T01:32:56;99721.40;;;10.20
67353;BMP180;54238;52.278;21.056;2023-03-23T01:35:23;99720.60;;;10.20
67353;BMP180;54238;52.278;21.056;2023-03-23T01:37:54;99718.60;;;10.20
67353;BMP180;54238;52.278;21.056;2023-03-23T01:40:28;99717.40;;;10.20
67353;BMP180;54238;52.278;21.056;2023-03-23T01:42:58;99718.40;;;10.20
67353;BMP180;54238;52.278;21.056;2023-03-23T01:45:34;99718.00;;;10.20
67353;BMP180;54238;52.278;21.056;2023-03-23T01:48:08;99714.60;;;10.24
67353;BMP180;54238;52.278;21.056;2023-03-23T01:53:31;99708.40;;;10.30
67353;BMP180;54238;52.278;21.056;2023-03-23T01:56:01;99710.00;;;10.30
67353;BMP180;54238;52.278;21.056;2023-03-23T01:58:32;99711.20;;;10.30
67353;BMP180;54238;52.278;21.056;2023-03-23T02:01:06;99706.20;;;10.30
67353;BMP180;54238;52.278;21.056;2023-03-23T02:04:14;99699.80;;;10.34
67353;BMP180;54238;52.278;21.056;2023-03-23T02:06:50;99691.80;;;10.40
67353;BMP180;54238;52.278;21.056;2023-03-23T02:09:19;99692.00;;;10.40
67353;BMP180;54238;52.278;21.056;2023-03-23T02:14:42;99687.00;;;10.40
67353;BMP180;54238;52.278;21.056;2023-03-23T02:26:23;99676.80;;;10.40
67353;BMP180;54238;52.278;21.056;2023-03-23T02:34:27;99668.60;;;10.40
67353;BMP180;54238;52.278;21.056;2023-03-23T02:37:02;99667.20;;;10.38
67353;BMP180;54238;52.278;21.056;2023-03-23T02:39:33;99671.60;;;10.36
67353;BMP180;54238;52.278;21.056;2023-03-23T02:42:09;99668.00;;;10.30
67353;BMP180;54238;52.278;21.056;2023-03-23T02:44:43;99668.00;;;10.30
67353;BMP180;54238;52.278;21.056;2023-03-23T02:47:19;99669.60;;;10.30
67353;BMP180;54238;52.278;21.056;2023-03-23T02:49:52;99667.00;;;10.30
67353;BMP180;54238;52.278;21.056;2023-03-23T02:52:28;99664.00;;;10.30
67353;BMP180;54238;52.278;21.056;2023-03-23T02:55:00;99664.40;;;10.30
67353;BMP180;54238;52.278;21.056;2023-03-23T02:57:31;99667.00;;;10.20
67353;BMP180;54238;52.278;21.056;2023-03-23T02:59:58;99671.00;;;10.20
67353;BMP180;54238;52.278;21.056;2023-03-23T03:02:31;99670.20;;;10.20
67353;BMP180;54238;52.278;21.056;2023-03-23T03:11:08;99677.40;;;10.20
67353;BMP180;54238;52.278;21.056;2023-03-23T03:13:53;99673.60;;;10.16
67353;BMP180;54238;52.278;21.056;2023-03-23T03:19:32;99665.40;;;10.20
67353;BMP180;54238;52.278;21.056;2023-03-23T03:22:03;99666.60;;;10.20
67353;BMP180;54238;52.278;21.056;2023-03-23T03:24:32;99671.80;;;10.20
67353;BMP180;54238;52.278;21.056;2023-03-23T03:27:05;99671.20;;;10.20
67353;BMP180;54238;52.278;21.056;2023-03-23T03:29:40;99669.80;;;10.30
67353;BMP180;54238;52.278;21.056;2023-03-23T03:32:14;99669.80;;;10.30
67353;BMP180;54238;52.278;21.056;2023-03-23T03:34:44;99670.00;;;10.30
67353;BMP180;54238;52.278;21.056;2023-03-23T03:37:14;99671.80;;;10.40
67353;BMP180;54238;52.278;21.056;2023-03-23T03:40:15;99671.20;;;10.40
67353;BMP180;54238;52.278;21.056;2023-03-23T03:42:44;99678.60;;;10.50
67353;BMP180;54238;52.278;21.056;2023-03-23T03:45:20;99689.20;;;10.50
67353;BMP180;54238;52.278;21.056;2023-03-23T03:47:52;99683.80;;;10.50
67353;BMP180;54238;52.278;21.056;2023-03-23T03:50:21;99687.40;;;10.50
67353;BMP180;54238;52.278;21.056;2023-03-23T03:52:52;99684.20;;;10.60
67353;BMP180;54238;52.278;21.056;2023-03-23T03:55:27;99681.00;;;10.60
67353;BMP180;54238;52.278;21.056;2023-03-23T03:57:55;99679.20;;;10.60
67353;BMP180;54238;52.278;21.056;2023-03-23T04:00:28;99678.00;;;10.60
67353;BMP180;54238;52.278;21.056;2023-03-23T04:02:58;99671.20;;;10.60
67353;BMP180;54238;52.278;21.056;2023-03-23T04:05:30;99664.00;;;10.60
67353;BMP180;54238;52.278;21.056;2023-03-23T04:08:01;99660.00;;;10.60
67353;BMP180;54238;52.278;21.056;2023-03-23T04:10:32;99656.20;;;10.60
67353;BMP180;54238;52.278;21.056;2023-03-23T04:13:04;99652.40;;;10.60
67353;BMP180;54238;52.278;21.056;2023-03-23T04:15:34;99655.40;;;10.60
67353;BMP180;54238;52.278;21.056;2023-03-23T04:18:06;99661.60;;;10.60
67353;BMP180;54238;52.278;21.056;2023-03-23T04:20:36;99658.20;;;10.60
67353;BMP180;54238;52.278;21.056;2023-03-23T04:23:04;99663.80;;;10.56
67353;BMP180;54238;52.278;21.056;2023-03-23T04:25:37;99659.20;;;10.54
67353;BMP180;54238;52.278;21.056;2023-03-23T04:28:08;99661.80;;;10.50
67353;BMP180;54238;52.278;21.056;2023-03-23T04:30:40;99662.80;;;10.50
67353;BMP180;54238;52.278;21.056;2023-03-23T04:33:13;99654.40;;;10.50
67353;BMP180;54238;52.278;21.056;2023-03-23T04:35:46;99656.00;;;10.50
67353;BMP180;54238;52.278;21.056;2023-03-23T04:38:16;99659.80;;;10.50
67353;BMP180;54238;52.278;21.056;2023-03-23T04:40:50;99661.40;;;10.50
67353;BMP180;54238;52.278;21.056;2023-03-23T04:43:23;99660.40;;;10.50
67353;BMP180;54238;52.278;21.056;2023-03-23T04:45:58;99654.00;;;10.50
67353;BMP180;54238;52.278;21.056;2023-03-23T04:48:32;99658.80;;;10.50
67353;BMP180;54238;52.278;21.056;2023-03-23T04:51:03;99657.20;;;10.50
67353;BMP180;54238;52.278;21.056;2023-03-23T04:53:34;99656.00;;;10.50
67353;BMP180;54238;52.278;21.056;2023-03-23T04:56:06;99656.00;;;10.52
67353;BMP180;54238;52.278;21.056;2023-03-23T04:58:38;99650.00;;;10.52
67353;BMP180;54238;52.278;21.056;2023-03-23T05:01:09;99640.80;;;10.60
67353;BMP180;54238;52.278;21.056;2023-03-23T05:03:36;99642.40;;;10.60
67353;BMP180;54238;52.278;21.056;2023-03-23T05:06:03;99645.80;;;10.60
67353;BMP180;54238;52.278;21.056;2023-03-23T05:08:31;99646.20;;;10.60
67353;BMP180;54238;52.278;21.056;2023-03-23T05:11:00;99646.60;;;10.70
67353;BMP180;54238;52.278;21.056;2023-03-23T05:13:34;99647.00;;;10.70
67353;BMP180;54238;52.278;21.056;2023-03-23T05:16:05;99649.60;;;10.70
67353;BMP180;54238;52.278;21.056;2023-03-23T05:18:33;99646.00;;;10.72
67353;BMP180;54238;52.278;21.056;2023-03-23T05:21:05;99647.40;;;10.80
67353;BMP180;54238;52.278;21.056;2023-03-23T05:23:35;99649.60;;;10.80
67353;BMP180;54238;52.278;21.056;2023-03-23T05:26:04;99645.20;;;10.80
67353;BMP180;54238;52.278;21.056;2023-03-23T05:28:34;99647.20;;;10.80
67353;BMP180;54238;52.278;21.056;2023-03-23T05:31:03;99648.80;;;10.80
67353;BMP180;54238;52.278;21.056;2023-03-23T05:33:33;99643.40;;;10.90
67353;BMP180;54238;52.278;21.056;2023-03-23T05:36:00;99634.20;;;10.90
67353;BMP180;54238;52.278;21.056;2023-03-23T05:38:28;99637.20;;;10.90
67353;BMP180;54238;52.278;21.056;2023-03-23T05:40:59;99641.60;;;11.00
67353;BMP180;54238;52.278;21.056;2023-03-23T05:43:31;99648.60;;;10.98
67353;BMP180;54238;52.278;21.056;2023-03-23T05:46:02;99652.40;;;11.00
67353;BMP180;54238;52.278;21.056;2023-03-23T05:48:37;99653.20;;;11.00
67353;BMP180;54238;52.278;21.056;2023-03-23T05:51:09;99652.00;;;11.00
67353;BMP180;54238;52.278;21.056;2023-03-23T05:53:36;99652.40;;;11.00
67353;BMP180;54238;52.278;21.056;2023-03-23T05:56:09;99653.00;;;11.10
67353;BMP180;54238;52.278;21.056;2023-03-23T05:58:41;99658.00;;;11.10
67353;BMP180;54238;52.278;21.056;2023-03-23T06:01:09;99656.60;;;11.10
67353;BMP180;54238;52.278;21.056;2023-03-23T06:03:36;99660.60;;;11.10
67353;BMP180;54238;52.278;21.056;2023-03-23T06:06:08;99663.80;;;11.18
67353;BMP180;54238;52.278;21.056;2023-03-23T06:08:37;99666.00;;;11.20
67353;BMP180;54238;52.278;21.056;2023-03-23T06:11:09;99663.00;;;11.20
67353;BMP180;54238;52.278;21.056;2023-03-23T06:13:36;99662.40;;;11.28
67353;BMP180;54238;52.278;21.056;2023-03-23T06:16:04;99658.80;;;11.30
67353;BMP180;54238;52.278;21.056;2023-03-23T06:18:34;99665.60;;;11.32
67353;BMP180;54238;52.278;21.056;2023-03-23T06:21:04;99660.60;;;11.40
67353;BMP180;54238;52.278;21.056;2023-03-23T06:23:36;99657.80;;;11.40
67353;BMP180;54238;52.278;21.056;2023-03-23T06:26:09;99658.80;;;11.48
67353;BMP180;54238;52.278;21.056;2023-03-23T06:28:37;99656.20;;;11.50
67353;BMP180;54238;52.278;21.056;2023-03-23T06:31:06;99654.80;;;11.50
67353;BMP180;54238;52.278;21.056;2023-03-23T06:33:37;99665.60;;;11.60
67353;BMP180;54238;52.278;21.056;2023-03-23T06:36:08;99674.20;;;11.60
67353;BMP180;54238;52.278;21.056;2023-03-23T06:38:36;99675.60;;;11.70
67353;BMP180;54238;52.278;21.056;2023-03-23T06:41:04;99678.40;;;11.74
67353;BMP180;54238;52.278;21.056;2023-03-23T06:43:32;99675.00;;;11.80
67353;BMP180;54238;52.278;21.056;2023-03-23T06:46:03;99675.40;;;11.90
67353;BMP180;54238;52.278;21.056;2023-03-23T06:48:35;99676.60;;;11.90
67353;BMP180;54238;52.278;21.056;2023-03-23T06:51:06;99672.40;;;12.00
67353;BMP180;54238;52.278;21.056;2023-03-23T06:53:36;99673.00;;;12.00
67353;BMP180;54238;52.278;21.056;2023-03-23T06:56:14;99663.20;;;12.04
67353;BMP180;54238;52.278;21.056;2023-03-23T06:58:44;99664.40;;;12.10
67353;BMP180;54238;52.278;21.056;2023-03-23T07:01:25;99663.20;;;12.18
67353;BMP180;54238;52.278;21.056;2023-03-23T07:03:58;99666.00;;;12.20
67353;BMP180;54238;52.278;21.056;2023-03-23T07:06:35;99673.00;;;12.30
67353;BMP180;54238;52.278;21.056;2023-03-23T07:09:02;99670.60;;;12.30
67353;BMP180;54238;52.278;21.056;2023-03-23T07:12:03;99676.00;;;12.40
67353;BMP180;54238;52.278;21.056;2023-03-23T07:14:35;99682.80;;;12.50
67353;BMP180;54238;52.278;21.056;2023-03-23T07:17:05;99685.20;;;12.60
67353;BMP180;54238;52.278;21.056;2023-03-23T07:19:34;99683.00;;;12.70
67353;BMP180;54238;52.278;21.056;2023-03-23T07:22:09;99680.40;;;12.78
67353;BMP180;54238;52.278;21.056;2023-03-23T07:24:39;99685.20;;;12.88
67353;BMP180;54238;52.278;21.056;2023-03-23T07:27:09;99684.60;;;13.00
67353;BMP180;54238;52.278;21.056;2023-03-23T07:29:37;99688.80;;;13.20
67353;BMP180;54238;52.278;21.056;2023-03-23T07:32:13;99689.40;;;13.30
67353;BMP180;54238;52.278;21.056;2023-03-23T07:34:45;99687.20;;;13.44
67353;BMP180;54238;52.278;21.056;2023-03-23T07:37:12;99691.60;;;13.60
67353;BMP180;54238;52.278;21.056;2023-03-23T07:39:39;99689.20;;;13.70
67353;BMP180;54238;52.278;21.056;2023-03-23T07:42:14;99688.20;;;13.80
67353;BMP180;54238;52.278;21.056;2023-03-23T07:44:46;99689.80;;;14.00
67353;BMP180;54238;52.278;21.056;2023-03-23T07:47:13;99695.20;;;14.10
67353;BMP180;54238;52.278;21.056;2023-03-23T07:49:43;99694.00;;;14.20
67353;BMP180;54238;52.278;21.056;2023-03-23T07:52:15;99692.00;;;14.30
67353;BMP180;54238;52.278;21.056;2023-03-23T07:54:42;99688.60;;;14.40
67353;BMP180;54238;52.278;21.056;2023-03-23T07:57:14;99683.80;;;14.52
67353;BMP180;54238;52.278;21.056;2023-03-23T07:59:46;99684.80;;;14.60
67353;BMP180;54238;52.278;21.056;2023-03-23T08:02:15;99682.20;;;14.80
67353;BMP180;54238;52.278;21.056;2023-03-23T08:04:45;99683.00;;;14.90
67353;BMP180;54238;52.278;21.056;2023-03-23T08:07:15;99678.60;;;15.02
67353;BMP180;54238;52.278;21.056;2023-03-23T08:09:47;99673.20;;;15.16
67353;BMP180;54238;52.278;21.056;2023-03-23T08:12:14;99677.60;;;15.30
67353;BMP180;54238;52.278;21.056;2023-03-23T08:14:42;99679.80;;;15.50
67353;BMP180;54238;52.278;21.056;2023-03-23T08:17:11;99683.20;;;15.62
67353;BMP180;54238;52.278;21.056;2023-03-23T08:19:38;99679.80;;;15.70
67353;BMP180;54238;52.278;21.056;2023-03-23T08:22:28;99672.60;;;15.88
67353;BMP180;54238;52.278;21.056;2023-03-23T08:24:56;99671.60;;;16.00
67353;BMP180;54238;52.278;21.056;2023-03-23T08:27:32;99663.20;;;16.10
67353;BMP180;54238;52.278;21.056;2023-03-23T08:30:05;99658.00;;;16.30
67353;BMP180;54238;52.278;21.056;2023-03-23T08:32:37;99652.80;;;16.44
67353;BMP180;54238;52.278;21.056;2023-03-23T08:35:09;99656.00;;;16.60
67353;BMP180;54238;52.278;21.056;2023-03-23T08:37:37;99647.80;;;16.60
67353;BMP180;54238;52.278;21.056;2023-03-23T08:40:05;99643.00;;;16.60
67353;BMP180;54238;52.278;21.056;2023-03-23T08:42:39;99644.00;;;16.60
67353;BMP180;54238;52.278;21.056;2023-03-23T08:45:12;99650.40;;;16.66
67353;BMP180;54238;52.278;21.056;2023-03-23T08:47:45;99651.20;;;16.60
67353;BMP180;54238;52.278;21.056;2023-03-23T08:50:20;99653.00;;;16.66
67353;BMP180;54238;52.278;21.056;2023-03-23T08:52:53;99647.80;;;16.70
67353;BMP180;54238;52.278;21.056;2023-03-23T08:55:22;99656.20;;;16.80
67353;BMP180;54238;52.278;21.056;2023-03-23T08:57:49;99660.40;;;16.80
67353;BMP180;54238;52.278;21.056;2023-03-23T09:00:22;99654.80;;;16.80
67353;BMP180;54238;52.278;21.056;2023-03-23T09:02:53;99652.20;;;16.80
67353;BMP180;54238;52.278;21.056;2023-03-23T09:05:28;99653.20;;;16.70
67353;BMP180;54238;52.278;21.056;2023-03-23T09:08:00;99656.60;;;16.70
67353;BMP180;54238;52.278;21.056;2023-03-23T09:10:53;99656.60;;;16.60
67353;BMP180;54238;52.278;21.056;2023-03-23T09:13:22;99663.00;;;16.60
67353;BMP180;54238;52.278;21.056;2023-03-23T09:15:49;99667.00;;;16.50
67353;BMP180;54238;52.278;21.056;2023-03-23T09:18:20;99660.40;;;16.50
67353;BMP180;54238;52.278;21.056;2023-03-23T09:21:14;99660.20;;;16.50
67353;BMP180;54238;52.278;21.056;2023-03-23T09:23:43;99666.60;;;16.50
67353;BMP180;54238;52.278;21.056;2023-03-23T09:26:12;99658.20;;;16.60
67353;BMP180;54238;52.278;21.056;2023-03-23T09:28:41;99656.60;;;16.60
67353;BMP180;54238;52.278;21.056;2023-03-23T09:31:20;99655.40;;;16.70
67353;BMP180;54238;52.278;21.056;2023-03-23T09:33:53;99658.80;;;16.70
67353;BMP180;54238;52.278;21.056;2023-03-23T09:36:30;99653.20;;;16.60
67353;BMP180;54238;52.278;21.056;2023-03-23T09:38:59;99652.60;;;16.60
67353;BMP180;54238;52.278;21.056;2023-03-23T09:42:04;99650.60;;;16.70
67353;BMP180;54238;52.278;21.056;2023-03-23T09:50:32;99639.20;;;17.00
67353;BMP180;54238;52.278;21.056;2023-03-23T09:53:21;99623.60;;;17.18
67353;BMP180;54238;52.278;21.056;2023-03-23T09:55:49;99625.40;;;17.36
67353;BMP180;54238;52.278;21.056;2023-03-23T09:58:51;99617.20;;;17.50
67353;BMP180;54238;52.278;21.056;2023-03-23T10:01:35;99622.40;;;17.70
67353;BMP180;54238;52.278;21.056;2023-03-23T10:09:56;99625.40;;;18.22
67353;BMP180;54238;52.278;21.056;2023-03-23T10:15:34;99617.40;;;19.36
67353;BMP180;54238;52.278;21.056;2023-03-23T10:20:56;99608.40;;;20.48
67353;BMP180;54238;52.278;21.056;2023-03-23T10:23:42;99609.60;;;21.14
67353;BMP180;54238;52.278;21.056;2023-03-23T10:31:58;99600.00;;;22.64
67353;BMP180;54238;52.278;21.056;2023-03-23T10:34:44;99600.60;;;23.26
67353;BMP180;54238;52.278;21.056;2023-03-23T10:37:23;99585.00;;;23.84
67353;BMP180;54238;52.278;21.056;2023-03-23T10:39:58;99594.80;;;24.10
67353;BMP180;54238;52.278;21.056;2023-03-23T10:42:34;99591.40;;;24.38
67353;BMP180;54238;52.278;21.056;2023-03-23T10:45:29;99595.60;;;24.80
67353;BMP180;54238;52.278;21.056;2023-03-23T10:48:11;99594.40;;;24.80
67353;BMP180;54238;52.278;21.056;2023-03-23T10:50:46;99613.40;;;24.52
67353;BMP180;54238;52.278;21.056;2023-03-23T10:53:26;99596.20;;;24.18
67353;BMP180;54238;52.278;21.056;2023-03-23T10:55:59;99594.00;;;23.80
67353;BMP180;54238;52.278;21.056;2023-03-23T10:58:32;99606.20;;;23.66
67353;BMP180;54238;52.278;21.056;2023-03-23T11:01:04;99610.80;;;23.30
67353;BMP180;54238;52.278;21.056;2023-03-23T11:03:43;99601.20;;;23.00
67353;BMP180;54238;52.278;21.056;2023-03-23T11:06:24;99603.40;;;23.10
67353;BMP180;54238;52.278;21.056;2023-03-23T11:12:19;99599.20;;;23.40
67353;BMP180;54238;52.278;21.056;2023-03-23T11:14:50;99614.40;;;23.68
67353;BMP180;54238;52.278;21.056;2023-03-23T11:17:26;99588.00;;;23.66
67353;BMP180;54238;52.278;21.056;2023-03-23T11:20:08;99586.20;;;23.60
67353;BMP180;54238;52.278;21.056;2023-03-23T11:22:44;99593.20;;;23.60
67353;BMP180;54238;52.278;21.056;2023-03-23T11:25:16;99581.60;;;23.60
67353;BMP180;54238;52.278;21.056;2023-03-23T11:27:46;99576.00;;;23.80
67353;BMP180;54238;52.278;21.056;2023-03-23T11:30:25;99579.40;;;23.84
67353;BMP180;54238;52.278;21.056;2023-03-23T11:33:03;99577.40;;;23.80
67353;BMP180;54238;52.278;21.056;2023-03-23T11:35:32;99572.40;;;24.00
67353;BMP180;54238;52.278;21.056;2023-03-23T11:38:03;99595.40;;;24.00
67353;BMP180;54238;52.278;21.056;2023-03-23T11:40:47;99574.00;;;24.02
67353;BMP180;54238;52.278;21.056;2023-03-23T11:43:23;99565.60;;;23.90
67353;BMP180;54238;52.278;21.056;2023-03-23T11:48:59;99559.00;;;24.08
67353;BMP180;54238;52.278;21.056;2023-03-23T11:51:46;99543.20;;;24.30
67353;BMP180;54238;52.278;21.056;2023-03-23T11:54:34;99551.40;;;24.72
67353;BMP180;54238;52.278;21.056;2023-03-23T11:57:11;99528.60;;;25.18
67353;BMP180;54238;52.278;21.056;2023-03-23T11:59:43;99531.20;;;25.70
67353;BMP180;54238;52.278;21.056;2023-03-23T12:05:32;99528.60;;;26.78
67353;BMP180;54238;52.278;21.056;2023-03-23T12:13:49;99553.00;;;25.98
67353;BMP180;54238;52.278;21.056;2023-03-23T12:31:54;99511.80;;;22.88
67353;BMP180;54238;52.278;21.056;2023-03-23T12:40:32;99501.40;;;22.88
67353;BMP180;54238;52.278;21.056;2023-03-23T12:43:28;99515.00;;;22.70
67353;BMP180;54238;52.278;21.056;2023-03-23T12:46:27;99515.40;;;22.58
67353;BMP180;54238;52.278;21.056;2023-03-23T12:49:06;99514.00;;;22.10
67353;BMP180;54238;52.278;21.056;2023-03-23T12:57:36;99494.40;;;21.30
67353;BMP180;54238;52.278;21.056;2023-03-23T13:03:27;99501.40;;;20.90
67353;BMP180;54238;52.278;21.056;2023-03-23T13:06:19;99496.20;;;20.78
67353;BMP180;54238;52.278;21.056;2023-03-23T13:08:57;99496.20;;;20.60
67353;BMP180;54238;52.278;21.056;2023-03-23T13:11:39;99497.00;;;20.50
67353;BMP180;54238;52.278;21.056;2023-03-23T13:14:35;99497.00;;;20.40
67353;BMP180;54238;52.278;21.056;2023-03-23T13:22:39;99495.80;;;20.00
67353;BMP180;54238;52.278;21.056;2023-03-23T13:32:38;99493.40;;;19.72
67353;BMP180;54238;52.278;21.056;2023-03-23T13:35:17;99490.60;;;19.70
67353;BMP180;54238;52.278;21.056;2023-03-23T13:37:50;99494.40;;;19.60
67353;BMP180;54238;52.278;21.056;2023-03-23T13:40:28;99489.80;;;19.56
67353;BMP180;54238;52.278;21.056;2023-03-23T13:42:59;99487.00;;;19.50
67353;BMP180;54238;52.278;21.056;2023-03-23T13:51:00;99503.60;;;19.40
67353;BMP180;54238;52.278;21.056;2023-03-23T13:56:21;99489.00;;;19.30
67353;BMP180;54238;52.278;21.056;2023-03-23T13:59:13;99490.40;;;19.30
67353;BMP180;54238;52.278;21.056;2023-03-23T14:01:41;99514.80;;;19.28
67353;BMP180;54238;52.278;21.056;2023-03-23T14:04:16;99516.20;;;19.20
67353;BMP180;54238;52.278;21.056;2023-03-23T14:06:49;99502.40;;;19.10
67353;BMP180;54238;52.278;21.056;2023-03-23T14:09:27;99509.00;;;19.10
67353;BMP180;54238;52.278;21.056;2023-03-23T14:11:57;99510.80;;;19.00
67353;BMP180;54238;52.278;21.056;2023-03-23T14:14:40;99529.20;;;18.90
67353;BMP180;54238;52.278;21.056;2023-03-23T14:17:14;99519.40;;;18.80
67353;BMP180;54238;52.278;21.056;2023-03-23T14:19:52;99523.80;;;18.76
67353;BMP180;54238;52.278;21.056;2023-03-23T14:22:33;99542.80;;;18.70
67353;BMP180;54238;52.278;21.056;2023-03-23T14:25:20;99558.60;;;18.60
67353;BMP180;54238;52.278;21.056;2023-03-23T14:27:54;99549.40;;;18.48
67353;BMP180;54238;52.278;21.056;2023-03-23T14:30:26;99559.00;;;18.40
67353;BMP180;54238;52.278;21.056;2023-03-23T14:33:06;99533.40;;;18.26
67353;BMP180;54238;52.278;21.056;2023-03-23T14:35:42;99547.40;;;18.20
67353;BMP180;54238;52.278;21.056;2023-03-23T14:38:22;99544.80;;;18.20
67353;BMP180;54238;52.278;21.056;2023-03-23T14:41:00;99537.40;;;18.10
67353;BMP180;54238;52.278;21.056;2023-03-23T14:43:29;99558.40;;;18.10
67353;BMP180;54238;52.278;21.056;2023-03-23T14:46:10;99549.80;;;18.00
67353;BMP180;54238;52.278;21.056;2023-03-23T14:48:42;99570.40;;;18.00
67353;BMP180;54238;52.278;21.056;2023-03-23T14:51:18;99588.80;;;17.90
67353;BMP180;54238;52.278;21.056;2023-03-23T14:53:47;99583.60;;;17.84
67353;BMP180;54238;52.278;21.056;2023-03-23T14:56:22;99594.40;;;17.78
67353;BMP180;54238;52.278;21.056;2023-03-23T14:59:06;99607.60;;;17.68
67353;BMP180;54238;52.278;21.056;2023-03-23T15:01:38;99584.40;;;17.60
67353;BMP180;54238;52.278;21.056;2023-03-23T15:06:46;99571.40;;;17.50
67353;BMP180;54238;52.278;21.056;2023-03-23T15:09:20;99570.00;;;17.40
67353;BMP180;54238;52.278;21.056;2023-03-23T15:12:00;99563.80;;;17.40
67353;BMP180;54238;52.278;21.056;2023-03-23T15:14:47;99573.80;;;17.38
67353;BMP180;54238;52.278;21.056;2023-03-23T15:20:25;99567.00;;;17.30
67353;BMP180;54238;52.278;21.056;2023-03-23T15:22:53;99568.60;;;17.26
67353;BMP180;54238;52.278;21.056;2023-03-23T15:28:17;99569.20;;;17.20
67353;BMP180;54238;52.278;21.056;2023-03-23T15:30:54;99578.80;;;17.20
67353;BMP180;54238;52.278;21.056;2023-03-23T15:33:24;99583.00;;;17.16
67353;BMP180;54238;52.278;21.056;2023-03-23T15:36:05;99574.20;;;17.10
67353;BMP180;54238;52.278;21.056;2023-03-23T15:38:48;99564.80;;;17.10
67353;BMP180;54238;52.278;21.056;2023-03-23T15:41:30;99581.60;;;17.10
67353;BMP180;54238;52.278;21.056;2023-03-23T15:44:18;99580.60;;;17.00
67353;BMP180;54238;52.278;21.056;2023-03-23T15:46:50;99574.00;;;17.00
67353;BMP180;54238;52.278;21.056;2023-03-23T15:49:18;99573.40;;;17.00
67353;BMP180;54238;52.278;21.056;2023-03-23T15:51:50;99587.00;;;17.00
67353;BMP180;54238;52.278;21.056;2023-03-23T15:54:17;99593.20;;;16.90
67353;BMP180;54238;52.278;21.056;2023-03-23T15:56:47;99583.80;;;16.90
67353;BMP180;54238;52.278;21.056;2023-03-23T15:59:16;99590.80;;;16.88
67353;BMP180;54238;52.278;21.056;2023-03-23T16:01:43;99587.20;;;16.80
67353;BMP180;54238;52.278;21.056;2023-03-23T16:04:18;99591.00;;;16.80
67353;BMP180;54238;52.278;21.056;2023-03-23T16:06:45;99593.20;;;16.80
67353;BMP180;54238;52.278;21.056;2023-03-23T16:09:19;99595.60;;;16.80
67353;BMP180;54238;52.278;21.056;2023-03-23T16:11:51;99603.60;;;16.70
67353;BMP180;54238;52.278;21.056;2023-03-23T16:14:28;99613.80;;;16.70
67353;BMP180;54238;52.278;21.056;2023-03-23T16:17:01;99607.20;;;16.70
67353;BMP180;54238;52.278;21.056;2023-03-23T16:19:38;99615.60;;;16.60
67353;BMP180;54238;52.278;21.056;2023-03-23T16:22:05;99616.60;;;16.60
67353;BMP180;54238;52.278;21.056;2023-03-23T16:24:42;99616.40;;;16.60
67353;BMP180;54238;52.278;21.056;2023-03-23T16:27:12;99622.40;;;16.50
67353;BMP180;54238;52.278;21.056;2023-03-23T16:29:53;99630.80;;;16.50
67353;BMP180;54238;52.278;21.056;2023-03-23T16:32:22;99618.00;;;16.40
67353;BMP180;54238;52.278;21.056;2023-03-23T16:37:57;99624.60;;;16.32
67353;BMP180;54238;52.278;21.056;2023-03-23T16:40:27;99634.00;;;16.30
67353;BMP180;54238;52.278;21.056;2023-03-23T16:42:57;99629.60;;;16.28
67353;BMP180;54238;52.278;21.056;2023-03-23T16:45:32;99645.40;;;16.20